createdAt,value
2022-12-25T00:00:29.840Z,101257.56
2022-12-25T00:02:59.883Z,101257.59
2022-12-25T00:05:28.386Z,101260.06
2022-12-25T00:07:56.751Z,101249.22
2022-12-25T00:10:25.219Z,101252.47
2022-12-25T00:12:53.589Z,101253.38
2022-12-25T00:15:21.994Z,101258.22
2022-12-25T00:17:50.378Z,101255.25
2022-12-25T00:20:20.339Z,101248.31
2022-12-25T00:22:48.699Z,101261.00
2022-12-25T00:25:17.211Z,101260.78
2022-12-25T00:27:45.578Z,101253.25
2022-12-25T00:30:14.240Z,101259.00
2022-12-25T00:32:42.636Z,101264.91
2022-12-25T00:35:11.141Z,101264.91
2022-12-25T00:37:40.863Z,101267.50
2022-12-25T00:40:10.575Z,101260.47
2022-12-25T00:42:38.945Z,101267.94
2022-12-25T00:45:08.159Z,101276.34
2022-12-25T00:47:36.599Z,101272.97
2022-12-25T00:50:05.930Z,101283.13
2022-12-25T00:52:34.446Z,101274.75
2022-12-25T00:55:04.198Z,101281.19
2022-12-25T00:57:34.283Z,101293.94
2022-12-25T01:00:02.647Z,101299.75
2022-12-25T01:02:31.431Z,101295.63
2022-12-25T01:04:59.883Z,101300.06
2022-12-25T01:07:28.758Z,101311.13
2022-12-25T01:10:14.424Z,101310.00
2022-12-25T01:12:44.775Z,101306.34
2022-12-25T01:15:13.849Z,101302.97
2022-12-25T01:17:42.642Z,101311.28
2022-12-25T01:20:12.768Z,101315.41
2022-12-25T01:22:41.341Z,101314.41
2022-12-25T01:25:10.605Z,101311.66
2022-12-25T01:27:39.385Z,101328.75
2022-12-25T01:30:10.656Z,101333.16
2022-12-25T01:32:39.054Z,101333.72
2022-12-25T01:35:08.118Z,101339.41
2022-12-25T01:37:36.522Z,101337.34
2022-12-25T01:40:05.771Z,101342.34
2022-12-25T01:42:34.298Z,101345.66
2022-12-25T01:45:36.181Z,101348.13
2022-12-25T01:48:09.667Z,101354.09
2022-12-25T01:50:40.591Z,101354.91
2022-12-25T01:53:09.435Z,101354.38
2022-12-25T01:55:39.527Z,101356.59
2022-12-25T01:58:07.957Z,101347.50
2022-12-25T02:00:36.676Z,101349.72
2022-12-25T02:03:07.201Z,101348.47
2022-12-25T02:05:36.527Z,101359.84
2022-12-25T02:08:09.425Z,101357.00
2022-12-25T02:10:39.131Z,101365.34
2022-12-25T02:13:08.643Z,101368.53
2022-12-25T02:15:48.278Z,101373.50
2022-12-25T02:18:26.125Z,101362.84
2022-12-25T02:21:10.262Z,101368.50
2022-12-25T02:24:07.503Z,101370.81
2022-12-25T02:26:56.225Z,101373.47
2022-12-25T02:29:31.820Z,101370.69
2022-12-25T02:32:06.636Z,101373.97
2022-12-25T02:34:40.876Z,101377.16
2022-12-25T02:37:17.138Z,101375.28
2022-12-25T02:39:57.908Z,101388.16
2022-12-25T02:42:54.949Z,101390.84
2022-12-25T02:45:47.429Z,101396.00
2022-12-25T02:48:35.478Z,101393.41
2022-12-25T02:51:24.456Z,101381.22
2022-12-25T02:54:13.246Z,101382.22
2022-12-25T02:57:03.022Z,101379.56
2022-12-25T02:59:51.435Z,101386.66
2022-12-25T03:02:44.183Z,101382.13
2022-12-25T03:05:34.070Z,101389.66
2022-12-25T03:08:08.168Z,101395.63
2022-12-25T03:10:58.851Z,101388.50
2022-12-25T03:13:32.245Z,101386.72
2022-12-25T03:16:18.677Z,101386.72
2022-12-25T03:18:48.685Z,101388.31
2022-12-25T03:21:34.799Z,101393.25
2022-12-25T03:24:17.185Z,101389.31
2022-12-25T03:26:58.344Z,101389.13
2022-12-25T03:29:47.229Z,101396.25
2022-12-25T03:32:22.786Z,101401.19
2022-12-25T03:35:21.287Z,101398.25
2022-12-25T03:38:18.447Z,101404.38
2022-12-25T03:41:16.054Z,101405.75
2022-12-25T03:44:10.920Z,101405.75
2022-12-25T03:47:06.661Z,101407.56
2022-12-25T03:50:02.258Z,101412.50
2022-12-25T03:52:51.673Z,101412.31
2022-12-25T03:55:39.145Z,101409.56
2022-12-25T03:58:36.093Z,101415.28
2022-12-25T04:01:22.804Z,101430.53
2022-12-25T04:04:08.135Z,101433.19
2022-12-25T04:06:54.077Z,101429.44
2022-12-25T04:09:41.573Z,101428.97
2022-12-25T04:12:35.651Z,101435.66
2022-12-25T04:15:28.988Z,101440.81
2022-12-25T04:18:14.914Z,101433.09
2022-12-25T04:21:00.582Z,101434.59
2022-12-25T04:23:46.367Z,101435.38
2022-12-25T04:26:33.548Z,101430.94
2022-12-25T04:29:19.339Z,101433.13
2022-12-25T04:32:05.483Z,101434.50
2022-12-25T04:34:51.143Z,101438.25
2022-12-25T04:37:19.645Z,101434.75
2022-12-25T04:39:48.039Z,101439.19
2022-12-25T04:42:18.069Z,101441.72
2022-12-25T04:44:46.426Z,101451.59
2022-12-25T04:47:14.832Z,101459.31
2022-12-25T04:49:43.299Z,101463.31
2022-12-25T04:52:11.712Z,101460.50
2022-12-25T04:54:40.226Z,101461.72
2022-12-25T04:57:08.699Z,101453.38
2022-12-25T04:59:38.422Z,101449.81
2022-12-25T05:02:06.907Z,101448.03
2022-12-25T05:04:35.475Z,101451.81
2022-12-25T05:07:03.924Z,101450.81
2022-12-25T05:09:32.292Z,101452.38
2022-12-25T05:12:00.655Z,101447.81
2022-12-25T05:14:29.179Z,101449.00
2022-12-25T05:16:58.978Z,101442.06
2022-12-25T05:19:28.066Z,101437.97
2022-12-25T05:21:56.638Z,101434.09
2022-12-25T05:24:27.705Z,101440.25
2022-12-25T05:26:56.129Z,101436.59
2022-12-25T05:29:24.590Z,101435.50
2022-12-25T05:31:52.953Z,101439.53
2022-12-25T05:34:22.728Z,101435.75
2022-12-25T05:36:51.074Z,101442.34
2022-12-25T05:39:19.601Z,101437.00
2022-12-25T05:41:47.995Z,101442.81
2022-12-25T05:44:16.472Z,101443.38
2022-12-25T05:46:44.901Z,101442.25
2022-12-25T05:49:13.596Z,101445.38
2022-12-25T05:51:43.360Z,101446.66
2022-12-25T05:54:11.749Z,101437.50
2022-12-25T05:56:40.255Z,101432.03
2022-12-25T05:59:08.624Z,101431.81
2022-12-25T06:01:37.073Z,101436.75
2022-12-25T06:04:10.308Z,101424.34
2022-12-25T06:06:40.942Z,101427.28
2022-12-25T06:09:13.295Z,101421.59
2022-12-25T06:11:41.989Z,101419.69
2022-12-25T06:14:12.413Z,101425.38
2022-12-25T06:16:40.901Z,101425.13
2022-12-25T06:19:09.630Z,101419.13
2022-12-25T06:21:38.166Z,101421.56
2022-12-25T06:24:07.101Z,101419.13
2022-12-25T06:26:36.967Z,101422.69
2022-12-25T06:29:05.561Z,101429.94
2022-12-25T06:31:34.374Z,101433.81
2022-12-25T06:34:02.885Z,101433.28
2022-12-25T06:36:31.236Z,101433.28
2022-12-25T06:39:02.196Z,101424.91
2022-12-25T06:41:31.574Z,101421.56
2022-12-25T06:44:02.457Z,101423.34
2022-12-25T06:46:31.457Z,101429.16
2022-12-25T06:49:00.406Z,101427.16
2022-12-25T06:51:31.093Z,101427.81
2022-12-25T06:53:59.919Z,101430.28
2022-12-25T06:56:29.561Z,101441.00
2022-12-25T06:58:59.359Z,101450.13
2022-12-25T07:01:31.753Z,101446.44
2022-12-25T07:04:03.591Z,101453.03
2022-12-25T07:06:32.228Z,101461.50
2022-12-25T07:09:00.735Z,101451.91
2022-12-25T07:11:29.172Z,101457.84
2022-12-25T07:13:57.561Z,101470.41
2022-12-25T07:16:26.146Z,101467.66
2022-12-25T07:18:55.971Z,101476.00
2022-12-25T07:21:24.335Z,101487.16
2022-12-25T07:23:52.799Z,101486.34
2022-12-25T07:26:21.195Z,101474.56
2022-12-25T07:28:49.577Z,101487.59
2022-12-25T07:31:19.094Z,101491.28
2022-12-25T07:33:47.529Z,101499.34
2022-12-25T07:36:17.794Z,101496.97
2022-12-25T07:38:49.691Z,101492.88
2022-12-25T07:41:18.956Z,101501.56
2022-12-25T07:43:50.772Z,101492.31
2022-12-25T07:46:20.146Z,101484.84
2022-12-25T07:48:48.642Z,101487.84
2022-12-25T07:51:18.407Z,101483.81
2022-12-25T07:53:47.278Z,101480.50
2022-12-25T07:56:18.118Z,101478.25
2022-12-25T07:58:46.850Z,101486.19
2022-12-25T08:01:18.192Z,101478.25
2022-12-25T08:03:50.492Z,101486.63
2022-12-25T08:06:21.163Z,101486.63
2022-12-25T08:08:49.998Z,101485.72
2022-12-25T08:11:18.376Z,101487.41
2022-12-25T08:13:46.838Z,101491.63
2022-12-25T08:16:15.467Z,101493.66
2022-12-25T08:18:44.423Z,101493.91
2022-12-25T08:21:15.620Z,101488.19
2022-12-25T08:23:47.243Z,101497.69
2022-12-25T08:26:17.979Z,101492.75
2022-12-25T08:28:46.459Z,101490.31
2022-12-25T08:31:17.656Z,101485.19
2022-12-25T08:33:46.237Z,101477.59
2022-12-25T08:36:16.766Z,101478.47
2022-12-25T08:38:47.425Z,101479.47
2022-12-25T08:41:16.605Z,101487.19
2022-12-25T08:43:45.117Z,101482.25
2022-12-25T08:46:13.840Z,101482.94
2022-12-25T08:48:45.838Z,101478.34
2022-12-25T08:51:17.119Z,101465.50
2022-12-25T08:53:48.730Z,101464.50
2022-12-25T08:56:18.595Z,101461.16
2022-12-25T08:58:47.373Z,101447.22
2022-12-25T09:01:16.024Z,101441.53
2022-12-25T09:03:44.599Z,101437.13
2022-12-25T09:06:15.357Z,101433.81
2022-12-25T09:08:49.065Z,101441.28
2022-12-25T09:11:20.774Z,101427.22
2022-12-25T09:13:50.023Z,101430.47
2022-12-25T09:16:21.447Z,101428.00
2022-12-25T09:18:50.598Z,101425.22
2022-12-25T09:21:20.174Z,101424.22
2022-12-25T09:23:48.963Z,101431.38
2022-12-25T09:26:20.293Z,101430.78
2022-12-25T09:28:52.288Z,101430.22
2022-12-25T09:31:22.612Z,101429.34
2022-12-25T09:34:00.476Z,101422.63
2022-12-25T09:36:31.828Z,101425.31
2022-12-25T09:39:00.381Z,101424.53
2022-12-25T09:41:35.077Z,101421.72
2022-12-25T09:44:07.497Z,101417.94
2022-12-25T09:46:41.947Z,101418.72
2022-12-25T09:49:20.099Z,101416.97
2022-12-25T09:51:54.414Z,101426.91
2022-12-25T09:54:25.936Z,101427.69
2022-12-25T09:56:56.087Z,101426.13
2022-12-25T09:59:26.116Z,101433.59
2022-12-25T10:02:07.783Z,101444.53
2022-12-25T10:04:52.288Z,101440.75
2022-12-25T10:07:36.063Z,101445.69
2022-12-25T10:10:22.591Z,101445.69
2022-12-25T10:13:00.481Z,101432.28
2022-12-25T10:15:40.496Z,101429.72
2022-12-25T10:18:48.402Z,101430.72
2022-12-25T10:21:20.683Z,101432.72
2022-12-25T10:23:55.394Z,101435.28
2022-12-25T10:26:25.464Z,101430.34
2022-12-25T10:29:02.195Z,101425.56
2022-12-25T10:31:34.862Z,101418.19
2022-12-25T10:34:04.097Z,101408.56
2022-12-25T10:36:33.031Z,101412.53
2022-12-25T10:39:01.587Z,101403.72
2022-12-25T10:41:42.736Z,101404.13
2022-12-25T10:44:20.345Z,101401.56
2022-12-25T10:46:51.043Z,101398.88
2022-12-25T10:49:23.991Z,101393.97
2022-12-25T10:51:52.798Z,101387.25
2022-12-25T10:54:23.780Z,101388.56
2022-12-25T10:56:57.336Z,101388.06
2022-12-25T10:59:28.793Z,101384.13
2022-12-25T11:02:05.168Z,101383.56
2022-12-25T11:04:36.698Z,101378.84
2022-12-25T11:07:08.846Z,101386.28
2022-12-25T11:09:37.621Z,101386.59
2022-12-25T11:12:06.778Z,101381.47
2022-12-25T11:14:36.522Z,101376.44
2022-12-25T11:17:09.495Z,101379.97
2022-12-25T11:19:37.942Z,101388.91
2022-12-25T11:22:18.561Z,101391.66
2022-12-25T11:24:46.940Z,101384.97
2022-12-25T11:27:26.959Z,101384.44
2022-12-25T11:30:00.680Z,101382.09
2022-12-25T11:32:32.413Z,101374.69
2022-12-25T11:35:02.760Z,101386.84
2022-12-25T11:37:36.371Z,101381.00
2022-12-25T11:40:06.138Z,101381.69
2022-12-25T11:42:37.656Z,101367.34
2022-12-25T11:45:13.006Z,101346.09
2022-12-25T11:47:46.103Z,101345.59
2022-12-25T11:50:24.150Z,101322.66
2022-12-25T11:52:53.976Z,101314.16
2022-12-25T11:55:38.900Z,101302.56
2022-12-25T11:58:15.787Z,101285.91
2022-12-25T12:00:48.366Z,101278.47
2022-12-25T12:03:22.687Z,101271.16
2022-12-25T12:05:55.074Z,101263.63
2022-12-25T12:08:23.459Z,101270.53
2022-12-25T12:11:16.881Z,101269.56
2022-12-25T12:14:06.453Z,101266.88
2022-12-25T12:16:37.340Z,101280.66
2022-12-25T12:19:13.684Z,101284.22
2022-12-25T12:21:44.161Z,101296.97
2022-12-25T12:24:17.582Z,101292.03
2022-12-25T12:26:48.435Z,101299.84
2022-12-25T12:29:26.727Z,101280.25
2022-12-25T12:32:01.017Z,101271.00
2022-12-25T12:34:31.056Z,101261.78
2022-12-25T12:37:03.134Z,101250.88
2022-12-25T12:39:36.467Z,101245.94
2022-12-25T12:42:14.612Z,101256.41
2022-12-25T12:44:43.905Z,101267.88
2022-12-25T12:47:30.973Z,101274.22
2022-12-25T12:50:00.876Z,101274.41
2022-12-25T12:52:34.187Z,101260.03
2022-12-25T12:55:06.784Z,101260.13
2022-12-25T12:57:39.800Z,101256.75
2022-12-25T13:00:13.266Z,101250.78
2022-12-25T13:03:11.497Z,101242.25
2022-12-25T13:05:48.043Z,101243.16
2022-12-25T13:08:33.303Z,101252.56
2022-12-25T13:11:09.600Z,101245.84
2022-12-25T13:13:41.770Z,101252.75
2022-12-25T13:16:22.228Z,101258.09
2022-12-25T13:18:52.615Z,101252.16
2022-12-25T13:21:25.639Z,101247.00
2022-12-25T13:23:58.523Z,101242.09
2022-12-25T13:26:28.075Z,101236.25
2022-12-25T13:28:57.000Z,101244.94
2022-12-25T13:31:27.093Z,101243.38
2022-12-25T13:33:59.676Z,101241.59
2022-12-25T13:36:36.082Z,101227.72
2022-12-25T13:39:08.208Z,101229.31
2022-12-25T13:42:01.004Z,101229.13
2022-12-25T13:44:35.285Z,101228.25
2022-12-25T13:47:16.606Z,101211.91
2022-12-25T13:52:16.206Z,101186.13
2022-12-25T13:54:58.343Z,101201.59
2022-12-25T13:57:30.223Z,101195.75
2022-12-25T13:59:59.920Z,101181.34
2022-12-25T14:02:33.440Z,101175.31
2022-12-25T14:05:01.863Z,101172.81
2022-12-25T14:07:31.599Z,101172.81
2022-12-25T14:10:02.693Z,101167.66
2022-12-25T14:12:34.189Z,101171.13
2022-12-25T14:15:04.788Z,101177.97
2022-12-25T14:17:34.342Z,101183.31
2022-12-25T14:20:08.244Z,101179.75
2022-12-25T14:22:38.685Z,101190.06
2022-12-25T14:25:16.106Z,101185.78
2022-12-25T14:27:50.428Z,101188.47
2022-12-25T14:30:19.246Z,101182.41
2022-12-25T14:32:51.813Z,101179.06
2022-12-25T14:35:23.510Z,101192.00
2022-12-25T14:38:00.337Z,101183.50
2022-12-25T14:40:31.443Z,101189.41
2022-12-25T14:43:02.173Z,101180.13
2022-12-25T14:45:33.671Z,101166.44
2022-12-25T14:48:04.339Z,101170.88
2022-12-25T14:50:37.308Z,101157.28
2022-12-25T14:53:17.750Z,101160.91
2022-12-25T14:55:49.354Z,101152.56
2022-12-25T14:58:23.655Z,101135.56
2022-12-25T15:00:56.256Z,101117.53
2022-12-25T15:03:28.548Z,101118.50
2022-12-25T15:06:02.395Z,101114.34
2022-12-25T15:08:33.457Z,101120.44
2022-12-25T15:11:03.391Z,101117.16
2022-12-25T15:13:32.622Z,101126.66
2022-12-25T15:16:06.969Z,101112.91
2022-12-25T15:18:37.332Z,101106.94
2022-12-25T15:21:05.844Z,101099.28
2022-12-25T15:23:35.629Z,101106.13
2022-12-25T15:26:04.098Z,101107.91
2022-12-25T15:28:32.538Z,101113.06
2022-12-25T15:31:00.998Z,101108.06
2022-12-25T15:33:29.385Z,101105.50
2022-12-25T15:35:57.784Z,101113.38
2022-12-25T15:38:26.178Z,101116.06
2022-12-25T15:40:56.118Z,101116.25
2022-12-25T15:43:40.949Z,101117.28
2022-12-25T15:46:10.701Z,101102.72
2022-12-25T15:48:39.182Z,101103.69
2022-12-25T15:51:07.552Z,101087.50
2022-12-25T15:53:36.053Z,101084.19
2022-12-25T15:56:06.477Z,101082.56
2022-12-25T15:58:34.815Z,101086.13
2022-12-25T16:01:03.298Z,101080.25
2022-12-25T16:03:31.759Z,101067.41
2022-12-25T16:06:00.180Z,101074.44
2022-12-25T16:08:28.565Z,101072.94
2022-12-25T16:10:56.915Z,101069.63
2022-12-25T16:13:26.700Z,101057.69
2022-12-25T16:15:55.326Z,101050.84
2022-12-25T16:18:23.971Z,101062.22
2022-12-25T16:20:53.082Z,101044.25
2022-12-25T16:23:22.188Z,101037.47
2022-12-25T16:25:51.096Z,101045.28
2022-12-25T16:28:19.458Z,101044.56
2022-12-25T16:30:49.249Z,101039.53
2022-12-25T16:33:17.764Z,101040.59
2022-12-25T16:35:47.131Z,101040.66
2022-12-25T16:38:15.511Z,101035.59
2022-12-25T16:40:44.564Z,101032.22
2022-12-25T16:43:13.933Z,101033.09
2022-12-25T16:45:44.791Z,101019.38
2022-12-25T16:48:15.159Z,101004.81
2022-12-25T16:50:43.665Z,101002.28
2022-12-25T16:53:12.620Z,100998.09
2022-12-25T16:55:41.051Z,100987.03
2022-12-25T16:58:09.527Z,100987.13
2022-12-25T17:00:37.882Z,100986.41
2022-12-25T17:03:06.732Z,100976.22
2022-12-25T17:05:36.750Z,100968.56
2022-12-25T17:08:05.533Z,100953.16
2022-12-25T17:10:33.860Z,100958.44
2022-12-25T17:13:02.211Z,100950.03
2022-12-25T17:15:30.602Z,100934.66
2022-12-25T17:17:59.110Z,100934.66
2022-12-25T17:20:27.470Z,100942.47
2022-12-25T17:22:57.677Z,100943.41
2022-12-25T17:25:26.791Z,100937.44
2022-12-25T17:27:55.163Z,100935.84
2022-12-25T17:30:23.703Z,100931.63
2022-12-25T17:32:52.156Z,100937.59
2022-12-25T17:35:21.441Z,100934.19
2022-12-25T17:37:49.809Z,100926.53
2022-12-25T17:40:19.742Z,100924.91
2022-12-25T17:42:48.143Z,100928.38
2022-12-25T17:45:16.572Z,100933.59
2022-12-25T17:47:44.968Z,100928.50
2022-12-25T17:50:13.383Z,100925.94
2022-12-25T17:52:41.796Z,100911.41
2022-12-25T17:55:10.821Z,100904.78
2022-12-25T17:57:41.454Z,100890.22
2022-12-25T18:00:10.573Z,100881.66
2022-12-25T18:02:40.094Z,100868.75
2022-12-25T18:05:09.678Z,100873.09
2022-12-25T18:07:38.124Z,100863.66
2022-12-25T18:10:07.586Z,100853.41
2022-12-25T18:12:36.066Z,100850.00
2022-12-25T18:15:06.415Z,100844.03
2022-12-25T18:17:34.791Z,100839.78
2022-12-25T18:20:03.363Z,100835.69
2022-12-25T18:22:31.784Z,100844.28
2022-12-25T18:25:00.231Z,100851.22
2022-12-25T18:27:28.647Z,100854.78
2022-12-25T18:29:57.169Z,100860.06
2022-12-25T18:32:28.269Z,100867.91
2022-12-25T18:34:57.063Z,100869.66
2022-12-25T18:37:26.570Z,100865.47
2022-12-25T18:39:55.040Z,100855.22
2022-12-25T18:42:43.068Z,100842.34
2022-12-25T18:45:13.297Z,100832.91
2022-12-25T18:47:43.335Z,100831.25
2022-12-25T18:50:12.256Z,100809.00
2022-12-25T18:52:49.123Z,100803.03
2022-12-25T18:55:20.052Z,100800.56
2022-12-25T18:57:49.540Z,100793.78
2022-12-25T19:00:18.535Z,100791.19
2022-12-25T19:02:49.189Z,100777.44
2022-12-25T19:05:18.098Z,100761.13
2022-12-25T19:07:46.491Z,100763.72
2022-12-25T19:10:14.880Z,100757.72
2022-12-25T19:12:43.321Z,100752.53
2022-12-25T19:15:12.309Z,100753.44
2022-12-25T19:17:40.740Z,100755.13
2022-12-25T19:20:12.139Z,100741.41
2022-12-25T19:22:40.549Z,100736.28
2022-12-25T19:25:09.721Z,100730.25
2022-12-25T19:27:38.127Z,100733.78
2022-12-25T19:30:08.360Z,100728.59
2022-12-25T19:32:36.896Z,100726.09
2022-12-25T19:35:06.349Z,100718.34
2022-12-25T19:37:36.104Z,100704.66
2022-12-25T19:40:05.055Z,100708.16
2022-12-25T19:42:33.484Z,100702.16
2022-12-25T19:45:03.070Z,100713.34
2022-12-25T19:47:31.518Z,100699.75
2022-12-25T19:50:03.113Z,100698.09
2022-12-25T19:52:32.134Z,100694.72
2022-12-25T19:55:01.952Z,100698.25
2022-12-25T19:57:30.398Z,100699.13
2022-12-25T19:59:58.761Z,100682.75
2022-12-25T20:02:27.499Z,100679.31
2022-12-25T20:04:56.709Z,100689.81
2022-12-25T20:07:25.449Z,100688.03
2022-12-25T20:09:55.666Z,100670.75
2022-12-25T20:12:25.402Z,100685.50
2022-12-25T20:14:53.754Z,100683.13
2022-12-25T20:17:22.140Z,100672.78
2022-12-25T20:19:50.524Z,100671.13
2022-12-25T20:22:18.927Z,100675.44
2022-12-25T20:24:49.066Z,100676.31
2022-12-25T20:27:17.540Z,100669.50
2022-12-25T20:29:47.297Z,100671.28
2022-12-25T20:32:16.250Z,100664.44
2022-12-25T20:34:44.703Z,100658.59
2022-12-25T20:37:13.106Z,100656.94
2022-12-25T20:39:41.724Z,100651.91
2022-12-25T20:42:10.149Z,100652.91
2022-12-25T20:44:39.075Z,100645.97
2022-12-25T20:47:09.134Z,100651.25
2022-12-25T20:49:37.893Z,100640.19
2022-12-25T20:52:06.663Z,100636.25
2022-12-25T20:54:35.218Z,100633.44
2022-12-25T20:57:03.590Z,100638.56
2022-12-25T20:59:37.113Z,100634.28
2022-12-25T21:02:07.189Z,100632.66
2022-12-25T21:04:37.335Z,100634.41
2022-12-25T21:07:06.281Z,100629.22
2022-12-25T21:09:34.701Z,100620.50
2022-12-25T21:12:03.243Z,100611.94
2022-12-25T21:14:31.639Z,100609.53
2022-12-25T21:17:00.121Z,100612.28
2022-12-25T21:19:28.593Z,100600.19
2022-12-25T21:21:58.724Z,100604.41
2022-12-25T21:24:29.691Z,100604.59
2022-12-25T21:26:58.107Z,100603.00
2022-12-25T21:29:26.547Z,100597.81
2022-12-25T21:32:12.987Z,100612.50
2022-12-25T21:34:41.431Z,100601.31
2022-12-25T21:37:11.331Z,100607.34
2022-12-25T21:39:39.870Z,100606.56
2022-12-25T21:42:08.238Z,100601.47
2022-12-25T21:44:36.684Z,100593.81
2022-12-25T21:47:05.195Z,100583.56
2022-12-25T21:49:50.838Z,100593.34
2022-12-25T21:52:20.632Z,100593.34
2022-12-25T21:54:51.976Z,100583.00
2022-12-25T21:57:21.005Z,100584.81
2022-12-25T21:59:49.431Z,100583.94
2022-12-25T22:02:18.159Z,100590.75
2022-12-25T22:04:46.722Z,100594.41
2022-12-25T22:07:17.436Z,100584.09
2022-12-25T22:09:47.836Z,100578.97
2022-12-25T22:12:43.500Z,100592.88
2022-12-25T22:15:12.342Z,100596.16
2022-12-25T22:18:00.294Z,100582.31
2022-12-25T22:20:31.098Z,100584.06
2022-12-25T22:22:59.601Z,100590.09
2022-12-25T22:25:29.565Z,100593.56
2022-12-25T22:27:58.628Z,100594.63
2022-12-25T22:30:28.653Z,100595.81
2022-12-25T22:32:57.606Z,100583.03
2022-12-25T22:35:25.970Z,100576.44
2022-12-25T22:37:54.824Z,100567.19
2022-12-25T22:40:23.369Z,100569.00
2022-12-25T22:42:56.227Z,100565.47
2022-12-25T22:45:24.753Z,100564.97
2022-12-25T22:47:53.233Z,100568.50
2022-12-25T22:50:21.617Z,100566.84
2022-12-25T22:52:50.047Z,100560.09
2022-12-25T22:55:20.204Z,100560.25
2022-12-25T22:57:49.279Z,100546.56
2022-12-25T23:00:19.132Z,100553.69
2022-12-25T23:02:47.676Z,100550.31
2022-12-25T23:05:16.252Z,100543.41
2022-12-25T23:07:44.640Z,100539.06
2022-12-25T23:10:13.017Z,100533.16
2022-12-25T23:12:58.690Z,100530.66
2022-12-25T23:15:28.913Z,100535.81
2022-12-25T23:18:14.925Z,100523.75
2022-12-25T23:21:00.512Z,100525.72
2022-12-25T23:23:46.311Z,100517.91
2022-12-25T23:26:15.715Z,100532.63
2022-12-25T23:29:02.305Z,100531.84
2022-12-25T23:31:34.584Z,100526.75
2022-12-25T23:34:04.797Z,100526.78
2022-12-25T23:36:33.835Z,100532.91
2022-12-25T23:39:09.062Z,100526.06
2022-12-25T23:41:39.185Z,100517.41
2022-12-25T23:44:07.898Z,100509.00
2022-12-25T23:46:37.871Z,100535.72
2022-12-25T23:49:06.453Z,100527.09
2022-12-25T23:51:36.504Z,100514.13
2022-12-25T23:54:05.356Z,100532.28
2022-12-25T23:56:34.186Z,100531.38
2022-12-25T23:59:02.647Z,100532.34
